Time;durP1;ratioP1;P1;durP2;ratioP2;P2;SDS_P1;SDS_P2;PMS_P1;PMS_P2;Temp;Humidity;BMP_temperature;BMP_pressure;BME280_temperature;BME280_humidity;BME280_pressure;Samples;Min_cycle;Max_cycle;Signal;HPM_P1;HPM_P2
2021/01/23 00:01:36;;;;;;;4.80;1.60;;;0.40;99.90;;;;;;4935116;29;20100;-89
2021/01/23 00:04:02;;;;;;;3.70;1.60;;;0.50;99.90;;;;;;4932440;29;20028;-88
2021/01/23 00:06:27;;;;;;;7.90;2.35;;;0.50;99.90;;;;;;4929828;29;20076;-88
2021/01/23 00:08:53;;;;;;;7.65;2.20;;;0.60;99.90;;;;;;4926260;29;20032;-89
2021/01/23 00:11:19;;;;;;;3.95;1.77;;;0.50;99.90;;;;;;4930921;29;20060;-89
2021/01/23 00:13:45;;;;;;;6.75;1.98;;;0.40;99.90;;;;;;4932086;29;20035;-89
2021/01/23 00:16:10;;;;;;;6.95;1.88;;;0.50;99.90;;;;;;4916632;29;20043;-89
2021/01/23 00:18:36;;;;;;;4.38;1.60;;;0.50;99.90;;;;;;4929521;29;20051;-89
2021/01/23 00:21:02;;;;;;;5.05;1.77;;;0.50;99.90;;;;;;4941259;28;20045;-89
2021/01/23 00:23:27;;;;;;;7.22;2.70;;;0.50;99.90;;;;;;4986642;28;20033;-89
2021/01/23 00:25:53;;;;;;;4.60;1.35;;;0.40;99.90;;;;;;4968283;28;20042;-89
2021/01/23 00:28:19;;;;;;;4.82;1.75;;;0.50;99.90;;;;;;4974037;28;20026;-89
2021/01/23 00:30:44;;;;;;;5.03;1.17;;;0.50;99.90;;;;;;4972935;28;20058;-89
2021/01/23 00:33:10;;;;;;;8.02;1.55;;;0.40;99.90;;;;;;4986366;28;20115;-90
2021/01/23 00:35:35;;;;;;;5.70;1.98;;;0.40;99.90;;;;;;4971582;28;20043;-89
2021/01/23 00:38:01;;;;;;;8.82;2.20;;;0.50;99.90;;;;;;4968342;28;20030;-89
2021/01/23 00:40:27;;;;;;;5.43;2.00;;;0.60;99.90;;;;;;4987138;28;20035;-89
2021/01/23 00:42:52;;;;;;;6.13;1.77;;;0.50;99.90;;;;;;4986755;28;20034;-89
2021/01/23 00:45:18;;;;;;;5.88;2.20;;;0.40;99.90;;;;;;4970740;28;20226;-88
2021/01/23 00:47:44;;;;;;;5.80;2.03;;;0.40;99.90;;;;;;4962829;28;20035;-89
2021/01/23 00:50:10;;;;;;;5.38;2.22;;;0.40;99.90;;;;;;4968271;28;20094;-89
2021/01/23 00:52:36;;;;;;;7.47;2.05;;;0.40;99.90;;;;;;4947472;28;20031;-89
2021/01/23 00:55:02;;;;;;;6.18;1.75;;;0.40;99.90;;;;;;4970608;28;20033;-89
2021/01/23 00:57:30;;;;;;;7.20;1.88;;;0.30;99.90;;;;;;4986845;28;20026;-89
2021/01/23 00:59:56;;;;;;;4.65;1.88;;;0.40;99.90;;;;;;4970631;28;20023;-89
2021/01/23 01:02:22;;;;;;;7.50;2.47;;;0.40;99.90;;;;;;4986708;28;20074;-89
2021/01/23 01:04:47;;;;;;;7.70;2.33;;;0.50;99.90;;;;;;4986403;28;20027;-90
2021/01/23 01:07:13;;;;;;;6.75;1.90;;;0.60;99.90;;;;;;4970333;28;20074;-90
2021/01/23 01:09:38;;;;;;;6.32;2.65;;;0.60;99.90;;;;;;4970466;28;20031;-90
2021/01/23 01:12:04;;;;;;;7.00;2.72;;;0.70;99.90;;;;;;4986877;28;20041;-89
2021/01/23 01:14:30;;;;;;;6.68;2.35;;;0.70;99.90;;;;;;4986405;28;20026;-89
2021/01/23 01:16:55;;;;;;;6.82;2.10;;;0.70;99.90;;;;;;4970243;28;20019;-89
2021/01/23 01:19:21;;;;;;;7.95;2.95;;;0.60;99.90;;;;;;4970088;28;20035;-90
2021/01/23 01:21:47;;;;;;;4.63;1.95;;;0.60;99.90;;;;;;4986283;28;20031;-90
2021/01/23 01:24:13;;;;;;;8.20;3.22;;;0.50;99.90;;;;;;4967442;28;20039;-89
2021/01/23 01:26:38;;;;;;;6.03;2.30;;;0.60;99.90;;;;;;4970480;28;20106;-90
2021/01/23 01:29:04;;;;;;;8.57;3.25;;;0.60;99.90;;;;;;4986375;28;20030;-90
2021/01/23 01:31:29;;;;;;;7.25;3.75;;;0.60;99.90;;;;;;4986275;28;20041;-90
2021/01/23 01:33:58;;;;;;;6.13;2.88;;;0.70;99.90;;;;;;4985576;28;20065;-90
2021/01/23 01:36:24;;;;;;;5.03;3.08;;;0.60;99.90;;;;;;4961910;28;20027;-90
2021/01/23 01:38:49;;;;;;;6.90;3.03;;;0.50;99.90;;;;;;4970066;28;20049;-90
2021/01/23 01:41:15;;;;;;;7.88;2.38;;;0.60;99.90;;;;;;4981006;28;20023;-90
2021/01/23 01:43:43;;;;;;;5.97;2.60;;;0.60;99.90;;;;;;4985756;28;20047;-90
2021/01/23 01:46:10;;;;;;;7.13;2.38;;;0.60;99.90;;;;;;4969650;28;20058;-90
2021/01/23 01:48:36;;;;;;;8.75;2.53;;;0.60;99.90;;;;;;4969925;28;20019;-89
2021/01/23 01:51:02;;;;;;;7.57;2.88;;;0.50;99.90;;;;;;4969944;28;20054;-90
2021/01/23 01:53:28;;;;;;;7.13;3.00;;;0.60;99.90;;;;;;4986009;28;20038;-89
2021/01/23 01:55:54;;;;;;;8.20;3.40;;;0.50;99.90;;;;;;4953833;28;20034;-89
2021/01/23 01:58:20;;;;;;;7.65;3.45;;;0.60;99.90;;;;;;4985779;28;20073;-90
2021/01/23 02:00:45;;;;;;;6.22;2.90;;;0.50;99.90;;;;;;4985918;28;20034;-89
2021/01/23 02:03:34;;;;;;;5.65;2.97;;;0.50;99.90;;;;;;4985595;28;20486;-89
2021/01/23 02:06:19;;;;;;;8.70;3.50;;;0.50;99.90;;;;;;4984938;28;20065;-88
2021/01/23 02:09:10;;;;;;;7.95;3.03;;;0.60;99.90;;;;;;4968823;28;20169;-90
2021/01/23 02:11:55;;;;;;;6.50;3.10;;;0.50;99.90;;;;;;4954301;28;20098;-90
2021/01/23 02:14:48;;;;;;;7.28;3.13;;;0.50;99.90;;;;;;4983998;28;20070;-90
2021/01/23 02:17:16;;;;;;;7.65;3.60;;;0.50;99.90;;;;;;4955473;28;20038;-90
2021/01/23 02:20:10;;;;;;;7.32;3.05;;;0.50;99.90;;;;;;4985924;28;20037;-90
2021/01/23 02:23:11;;;;;;;6.40;2.60;;;0.50;99.90;;;;;;4970473;28;20027;-90
2021/01/23 02:26:02;;;;;;;6.25;2.70;;;0.50;99.90;;;;;;4983954;28;20035;-90
2021/01/23 02:29:06;;;;;;;9.10;3.72;;;0.40;99.90;;;;;;4971750;28;20438;-90
2021/01/23 02:31:43;;;;;;;7.93;3.67;;;0.50;99.90;;;;;;4969224;28;20026;-90
2021/01/23 02:34:11;;;;;;;8.90;3.50;;;0.50;99.90;;;;;;4985713;28;20031;-90
2021/01/23 02:36:41;;;;;;;8.80;3.80;;;0.50;99.90;;;;;;4969572;28;20031;-90
2021/01/23 02:39:07;;;;;;;10.60;3.30;;;0.50;99.90;;;;;;4953708;28;20054;-90
2021/01/23 02:41:34;;;;;;;8.30;3.40;;;0.50;99.90;;;;;;4985479;28;20027;-89
2021/01/23 02:43:59;;;;;;;6.97;3.20;;;0.50;99.90;;;;;;4965844;28;20042;-90
2021/01/23 02:46:25;;;;;;;8.63;3.47;;;0.50;99.90;;;;;;4971794;28;20062;-90
2021/01/23 02:48:51;;;;;;;6.05;2.85;;;0.50;99.90;;;;;;4970525;28;20023;-90
2021/01/23 02:51:34;;;;;;;7.55;2.95;;;0.50;99.90;;;;;;4973076;28;20101;-90
2021/01/23 02:54:11;;;;;;;8.82;3.03;;;0.50;99.90;;;;;;4970245;28;20023;-90
2021/01/23 02:56:38;;;;;;;7.13;3.13;;;0.50;99.90;;;;;;4964612;28;20051;-90
2021/01/23 02:59:06;;;;;;;6.13;2.88;;;0.50;99.90;;;;;;4972911;28;20061;-90
2021/01/23 03:01:36;;;;;;;9.73;2.75;;;0.50;99.90;;;;;;4972794;28;20061;-90
2021/01/23 03:04:03;;;;;;;7.38;3.60;;;0.50;99.90;;;;;;4972810;28;20027;-90
2021/01/23 03:06:30;;;;;;;8.70;3.53;;;0.60;99.90;;;;;;4972490;28;20035;-90
2021/01/23 03:08:57;;;;;;;8.85;3.60;;;0.60;99.90;;;;;;4972530;28;20023;-90
2021/01/23 03:11:23;;;;;;;7.82;3.47;;;0.60;99.90;;;;;;4988507;28;20031;-90
2021/01/23 03:13:49;;;;;;;7.18;2.97;;;0.60;99.90;;;;;;4972633;28;20022;-90
2021/01/23 03:16:15;;;;;;;6.03;3.35;;;0.60;99.90;;;;;;4988724;28;20058;-90
2021/01/23 03:18:40;;;;;;;9.27;4.28;;;0.80;99.90;;;;;;4972623;28;20483;-90
2021/01/23 03:21:06;;;;;;;16.35;5.47;;;0.80;99.90;;;;;;4956329;28;20038;-89
2021/01/23 03:23:32;;;;;;;8.48;4.60;;;1.00;99.90;;;;;;4964345;28;20023;-90
2021/01/23 03:25:57;;;;;;;8.63;4.03;;;1.00;99.90;;;;;;4969427;28;20073;-90
2021/01/23 03:28:23;;;;;;;7.30;3.92;;;0.90;99.90;;;;;;4972545;28;20037;-91
2021/01/23 03:30:48;;;;;;;11.93;3.75;;;0.90;99.90;;;;;;4972158;28;20065;-91
2021/01/23 03:33:14;;;;;;;6.50;3.45;;;1.10;99.90;;;;;;4988446;28;20030;-92
2021/01/23 03:35:40;;;;;;;7.55;3.95;;;1.10;99.90;;;;;;4988094;28;20086;-91
2021/01/23 03:38:06;;;;;;;8.85;3.15;;;1.20;99.90;;;;;;4972257;28;20031;-92
2021/01/23 03:40:32;;;;;;;4.85;1.90;;;1.10;99.90;;;;;;4988219;28;20031;-91
2021/01/23 03:42:57;;;;;;;7.18;3.03;;;1.20;99.90;;;;;;4972166;28;20026;-91
2021/01/23 03:45:23;;;;;;;7.30;3.28;;;1.20;99.90;;;;;;4988048;28;20435;-91
2021/01/23 03:47:49;;;;;;;12.13;3.75;;;1.30;99.90;;;;;;4969296;28;20054;-91
2021/01/23 03:50:15;;;;;;;9.93;3.90;;;1.30;99.90;;;;;;4988095;28;20027;-91
2021/01/23 03:52:40;;;;;;;8.05;4.30;;;1.40;99.90;;;;;;4974540;28;20058;-91
2021/01/23 03:55:07;;;;;;;8.45;4.03;;;1.50;99.90;;;;;;4971621;28;20041;-91
2021/01/23 03:57:34;;;;;;;8.80;4.97;;;1.50;99.90;;;;;;4971678;28;20027;-91
2021/01/23 03:59:59;;;;;;;7.90;3.88;;;1.60;99.90;;;;;;4971870;28;20030;-91
2021/01/23 04:02:25;;;;;;;11.32;4.78;;;1.60;99.90;;;;;;4972134;28;20030;-91
2021/01/23 04:04:51;;;;;;;8.20;3.97;;;1.60;99.90;;;;;;4987861;28;20039;-92
2021/01/23 04:07:16;;;;;;;11.50;4.32;;;1.70;99.90;;;;;;4982569;28;20278;-90
2021/01/23 04:09:42;;;;;;;12.68;6.10;;;1.70;99.90;;;;;;4971580;28;20464;-92
2021/01/23 04:12:08;;;;;;;12.88;5.85;;;1.90;99.90;;;;;;4971594;28;20040;-91
2021/01/23 04:14:33;;;;;;;9.95;4.82;;;1.90;99.90;;;;;;4969162;28;20126;-90
2021/01/23 04:16:59;;;;;;;16.27;7.85;;;1.90;99.90;;;;;;4971638;28;20027;-92
2021/01/23 04:19:25;;;;;;;13.93;6.32;;;2.00;99.90;;;;;;4987509;28;20060;-92
2021/01/23 04:21:51;;;;;;;10.80;6.40;;;2.00;99.90;;;;;;4987772;28;20173;-92
2021/01/23 04:24:16;;;;;;;12.20;5.80;;;2.00;99.90;;;;;;4988053;28;20038;-91
2021/01/23 04:26:42;;;;;;;13.10;5.97;;;2.00;99.90;;;;;;4965886;28;20035;-93
2021/01/23 04:29:08;;;;;;;7.82;5.03;;;2.00;99.90;;;;;;4971559;28;20085;-92
2021/01/23 04:31:37;;;;;;;12.40;5.60;;;2.10;99.90;;;;;;4987534;28;20058;-93
2021/01/23 04:34:03;;;;;;;13.35;4.63;;;2.10;99.90;;;;;;4987713;28;20026;-92
2021/01/23 04:36:29;;;;;;;12.27;6.32;;;2.10;99.90;;;;;;4971271;28;20049;-93
2021/01/23 04:38:54;;;;;;;14.77;7.47;;;2.10;99.90;;;;;;4971225;28;20035;-92
2021/01/23 04:41:21;;;;;;;8.00;4.70;;;2.20;99.90;;;;;;4987682;28;20117;-92
2021/01/23 04:43:47;;;;;;;12.13;4.43;;;2.10;99.90;;;;;;4985843;28;20026;-93
2021/01/23 04:46:16;;;;;;;10.45;4.57;;;2.10;99.90;;;;;;4972483;28;20035;-91
2021/01/23 04:48:42;;;;;;;9.45;5.13;;;2.10;99.90;;;;;;4971572;28;20084;-93
2021/01/23 04:51:07;;;;;;;10.20;4.90;;;2.20;99.90;;;;;;4954930;28;20122;-93
2021/01/23 04:53:34;;;;;;;10.38;5.00;;;2.20;99.90;;;;;;4986837;28;20027;-91
2021/01/23 04:55:59;;;;;;;9.60;4.97;;;2.30;99.90;;;;;;4970448;28;20035;-92
2021/01/23 04:58:25;;;;;;;12.63;5.05;;;2.30;99.90;;;;;;4986745;28;20054;-93
2021/01/23 05:00:51;;;;;;;9.00;4.63;;;2.30;99.90;;;;;;4970758;28;20053;-92
2021/01/23 05:03:17;;;;;;;8.85;4.68;;;2.30;99.90;;;;;;4986734;28;20031;-92
2021/01/23 05:06:02;;;;;;;12.10;5.00;;;2.40;99.90;;;;;;4967522;28;20054;-93
2021/01/23 05:08:35;;;;;;;8.70;4.28;;;2.40;99.90;;;;;;4985542;28;20054;-93
2021/01/23 05:11:01;;;;;;;10.23;4.35;;;2.30;99.90;;;;;;4968429;28;20094;-92
2021/01/23 05:13:26;;;;;;;8.82;4.70;;;2.30;99.90;;;;;;4970530;28;20073;-93
2021/01/23 05:15:52;;;;;;;9.75;4.85;;;2.30;99.90;;;;;;4970462;28;20061;-92
2021/01/23 05:18:19;;;;;;;7.97;4.43;;;2.30;99.90;;;;;;4986490;28;20102;-93
2021/01/23 05:20:46;;;;;;;7.13;4.15;;;2.30;99.90;;;;;;4986146;28;20038;-93
2021/01/23 05:23:21;;;;;;;11.80;6.53;;;2.20;99.90;;;;;;4967620;28;20037;-93
2021/01/23 05:26:00;;;;;;;9.98;5.85;;;2.20;99.90;;;;;;4963898;29;20487;-92
2021/01/23 05:28:34;;;;;;;12.13;5.63;;;2.20;99.90;;;;;;4951676;28;20062;-92
2021/01/23 05:31:02;;;;;;;8.88;5.45;;;2.20;99.90;;;;;;4967760;28;20023;-93
2021/01/23 05:33:29;;;;;;;10.05;5.13;;;2.30;99.90;;;;;;4970099;28;20030;-93
2021/01/23 05:36:02;;;;;;;14.32;7.25;;;2.20;99.90;;;;;;4969664;28;20031;-93
2021/01/23 05:38:32;;;;;;;9.75;5.53;;;2.30;99.90;;;;;;4970185;28;20027;-92
2021/01/23 05:41:10;;;;;;;12.00;5.15;;;2.20;99.90;;;;;;4969784;28;20062;-94
2021/01/23 05:43:38;;;;;;;10.45;5.50;;;2.20;99.90;;;;;;4959828;28;20054;-93
2021/01/23 05:46:24;;;;;;;10.85;6.32;;;2.40;99.90;;;;;;4968278;28;20049;-93
2021/01/23 05:48:50;;;;;;;10.65;5.72;;;2.40;99.90;;;;;;4966555;28;20026;-93
2021/01/23 05:51:17;;;;;;;9.93;4.93;;;2.40;99.90;;;;;;4970323;28;20492;-92
2021/01/23 05:53:44;;;;;;;10.48;5.40;;;2.50;99.90;;;;;;4986198;28;20023;-93
2021/01/23 05:56:10;;;;;;;15.95;7.72;;;2.50;99.90;;;;;;4969892;28;20434;-93
2021/01/23 05:58:40;;;;;;;14.07;5.68;;;2.60;99.90;;;;;;4954004;28;20031;-93
2021/01/23 06:01:20;;;;;;;7.38;4.05;;;2.50;99.90;;;;;;4986008;28;20035;-93
2021/01/23 06:03:51;;;;;;;12.00;5.25;;;2.60;99.90;;;;;;4968701;28;20042;-93
2021/01/23 06:06:17;;;;;;;9.25;4.85;;;2.60;99.90;;;;;;4985679;28;20050;-94
2021/01/23 06:08:43;;;;;;;12.32;5.03;;;2.60;99.90;;;;;;4986023;28;20085;-94
2021/01/23 06:11:18;;;;;;;13.55;6.25;;;2.50;99.90;;;;;;4985997;28;20049;-94
2021/01/23 06:13:56;;;;;;;16.73;6.80;;;2.50;99.90;;;;;;4962233;28;20026;-94
2021/01/23 06:16:36;;;;;;;11.23;6.18;;;2.50;99.90;;;;;;4952614;28;20022;-93
2021/01/23 06:19:05;;;;;;;12.88;6.30;;;2.50;99.90;;;;;;4968818;28;20050;-94
2021/01/23 06:21:43;;;;;;;11.70;5.07;;;2.40;99.90;;;;;;4990132;28;20027;-93
2021/01/23 06:24:30;;;;;;;13.93;5.72;;;2.30;99.90;;;;;;4973517;28;20035;-94
2021/01/23 06:27:00;;;;;;;13.95;6.00;;;2.30;99.90;;;;;;4989063;28;20043;-93
2021/01/23 06:29:45;;;;;;;11.23;5.95;;;2.30;99.90;;;;;;4973673;28;20054;-93
2021/01/23 06:32:14;;;;;;;9.35;5.35;;;2.30;99.90;;;;;;4971661;28;20380;-93
2021/01/23 06:35:00;;;;;;;11.40;5.97;;;2.20;99.90;;;;;;4990131;28;20031;-92
2021/01/23 06:37:33;;;;;;;11.77;6.47;;;2.10;99.90;;;;;;4972712;28;20080;-94
2021/01/23 06:40:05;;;;;;;14.07;5.88;;;2.20;99.90;;;;;;4968994;28;20042;-92
2021/01/23 06:42:32;;;;;;;11.13;6.05;;;2.10;99.90;;;;;;4957266;28;20031;-93
2021/01/23 06:45:13;;;;;;;14.35;6.47;;;2.00;99.90;;;;;;4988551;28;20042;-93
2021/01/23 06:47:44;;;;;;;15.23;5.82;;;2.00;99.90;;;;;;4973876;28;20034;-96
2021/01/23 06:50:11;;;;;;;13.82;6.88;;;2.00;99.90;;;;;;4973691;28;20050;-95
2021/01/23 06:52:50;;;;;;;13.95;6.22;;;2.00;99.90;;;;;;4973327;28;20031;-94
2021/01/23 06:55:36;;;;;;;11.98;6.10;;;2.00;99.90;;;;;;4973067;28;20038;-93
2021/01/23 06:58:02;;;;;;;13.52;5.93;;;1.90;99.90;;;;;;4973589;28;20035;-94
2021/01/23 07:00:34;;;;;;;9.20;4.72;;;2.00;99.90;;;;;;4973032;28;20039;-94
2021/01/23 07:03:14;;;;;;;23.33;8.07;;;2.00;99.90;;;;;;4973250;28;20038;-95
2021/01/23 07:05:55;;;;;;;16.15;7.20;;;2.10;99.90;;;;;;4972851;28;20042;-95
2021/01/23 07:08:21;;;;;;;16.65;8.15;;;2.20;99.90;;;;;;4973059;28;20291;-95
2021/01/23 07:11:11;;;;;;;17.13;6.93;;;2.30;99.90;;;;;;4973187;28;20039;-94
2021/01/23 07:13:39;;;;;;;13.40;7.05;;;2.20;99.90;;;;;;4973334;28;20070;-94
2021/01/23 07:16:05;;;;;;;18.33;9.85;;;2.20;99.90;;;;;;4973096;28;20043;-96
2021/01/23 07:18:31;;;;;;;17.08;8.27;;;2.30;99.90;;;;;;4972973;28;20035;-95
2021/01/23 07:20:57;;;;;;;20.95;11.02;;;2.30;99.90;;;;;;4973006;28;20565;-94
2021/01/23 07:23:23;;;;;;;22.58;11.05;;;2.20;99.90;;;;;;4973089;28;20027;-94
2021/01/23 07:25:49;;;;;;;17.10;9.02;;;2.20;99.90;;;;;;4972498;28;20082;-92
2021/01/23 07:28:19;;;;;;;19.42;10.45;;;2.10;99.90;;;;;;4972959;28;20086;-94
2021/01/23 07:30:46;;;;;;;22.05;13.02;;;2.20;99.90;;;;;;4972232;28;20034;-92
2021/01/23 07:33:11;;;;;;;19.42;10.63;;;2.30;99.90;;;;;;4972688;28;20062;-92
2021/01/23 07:35:39;;;;;;;19.95;10.57;;;2.30;99.90;;;;;;4972374;28;20042;-92
2021/01/23 07:38:05;;;;;;;22.98;10.85;;;2.40;99.90;;;;;;4972772;28;20112;-93
2021/01/23 07:40:35;;;;;;;16.13;8.20;;;2.50;99.90;;;;;;4972633;28;20037;-90
2021/01/23 07:43:05;;;;;;;15.40;9.05;;;2.40;99.90;;;;;;4972706;28;20218;-93
2021/01/23 07:45:32;;;;;;;14.20;7.25;;;2.40;99.90;;;;;;4972527;28;20050;-96
2021/01/23 07:48:00;;;;;;;14.30;7.70;;;2.30;99.90;;;;;;4972534;28;20066;-94
2021/01/23 07:50:35;;;;;;;18.08;7.90;;;2.40;99.90;;;;;;4972355;28;20073;-95
2021/01/23 07:53:18;;;;;;;13.55;6.15;;;2.30;99.90;;;;;;4972203;28;20058;-94
2021/01/23 07:55:45;;;;;;;14.18;8.30;;;2.30;99.90;;;;;;4972068;28;20050;-94
2021/01/23 07:58:12;;;;;;;13.82;7.38;;;2.40;99.90;;;;;;4971891;28;20027;-94
2021/01/23 08:00:38;;;;;;;18.92;9.35;;;2.30;99.90;;;;;;4971904;28;20181;-94
2021/01/23 08:03:06;;;;;;;21.70;9.52;;;2.30;99.90;;;;;;4971838;28;20042;-95
2021/01/23 08:05:46;;;;;;;13.35;7.60;;;2.40;99.90;;;;;;4971726;28;20093;-93
2021/01/23 08:08:32;;;;;;;12.38;6.15;;;2.30;99.90;;;;;;4972340;28;20114;-93
2021/01/23 08:10:59;;;;;;;13.55;6.00;;;2.30;99.90;;;;;;4955631;28;20039;-94
2021/01/23 08:13:27;;;;;;;16.35;7.07;;;2.30;99.90;;;;;;4971474;28;20065;-92
2021/01/23 08:16:07;;;;;;;18.20;7.20;;;2.20;99.90;;;;;;4971204;28;20034;-91
2021/01/23 08:18:32;;;;;;;12.15;6.90;;;2.30;99.90;;;;;;4971254;28;20034;-93
2021/01/23 08:20:58;;;;;;;13.48;7.05;;;2.30;99.90;;;;;;4971376;28;20042;-94
2021/01/23 08:23:32;;;;;;;14.13;7.80;;;2.10;99.90;;;;;;4971491;28;20035;-94
2021/01/23 08:25:58;;;;;;;19.85;10.00;;;2.10;99.90;;;;;;4971453;28;20046;-94
2021/01/23 08:28:37;;;;;;;17.60;9.75;;;2.30;99.90;;;;;;4971395;28;20026;-94
2021/01/23 08:31:19;;;;;;;15.98;8.85;;;2.30;99.90;;;;;;4971310;28;20034;-93
2021/01/23 08:33:57;;;;;;;17.13;8.38;;;2.30;99.90;;;;;;4970963;28;20031;-94
2021/01/23 08:36:30;;;;;;;19.80;10.45;;;2.30;99.90;;;;;;4969807;28;20065;-93
2021/01/23 08:38:57;;;;;;;14.60;7.40;;;2.30;99.90;;;;;;4954289;28;20122;-94
2021/01/23 08:41:23;;;;;;;13.88;8.35;;;2.30;99.90;;;;;;4970802;28;20038;-94
2021/01/23 08:43:49;;;;;;;18.10;9.35;;;2.30;99.90;;;;;;4952642;28;20030;-94
2021/01/23 08:46:15;;;;;;;17.40;9.10;;;2.30;99.90;;;;;;4970475;28;20101;-92
2021/01/23 08:48:40;;;;;;;15.63;7.50;;;2.40;99.90;;;;;;4970883;28;20122;-94
2021/01/23 08:51:06;;;;;;;17.75;9.30;;;2.40;99.90;;;;;;4970662;28;20042;-93
2021/01/23 08:53:31;;;;;;;15.20;8.05;;;2.50;99.90;;;;;;4970773;28;20074;-94
2021/01/23 08:55:57;;;;;;;17.85;7.35;;;2.70;99.90;;;;;;4970567;28;20058;-94
2021/01/23 08:58:22;;;;;;;11.85;5.90;;;2.80;99.90;;;;;;4970617;28;20035;-92
2021/01/23 09:00:51;;;;;;;13.50;7.28;;;2.70;99.90;;;;;;4970709;28;20066;-93
2021/01/23 09:03:17;;;;;;;17.10;9.43;;;2.70;99.90;;;;;;4970710;28;20034;-94
2021/01/23 09:05:42;;;;;;;15.50;8.00;;;2.80;99.90;;;;;;4970497;28;20046;-94
2021/01/23 09:08:08;;;;;;;14.82;7.82;;;3.00;99.90;;;;;;4970623;28;20041;-93
2021/01/23 09:10:33;;;;;;;16.75;7.72;;;3.20;99.90;;;;;;4970279;28;20042;-95
2021/01/23 09:13:06;;;;;;;13.15;6.45;;;3.40;99.90;;;;;;4970449;28;20026;-93
2021/01/23 09:15:47;;;;;;;15.93;8.20;;;3.50;99.90;;;;;;4954561;28;20129;-94
2021/01/23 09:18:13;;;;;;;15.85;8.38;;;3.60;99.90;;;;;;4971655;28;20039;-95
2021/01/23 09:20:38;;;;;;;15.82;9.15;;;3.60;99.90;;;;;;4954344;28;20053;-94
2021/01/23 09:23:04;;;;;;;18.88;8.65;;;3.60;99.90;;;;;;4967303;28;20068;-95
2021/01/23 09:25:29;;;;;;;11.57;6.70;;;3.60;99.90;;;;;;4978167;28;20070;-96
2021/01/23 09:27:57;;;;;;;13.65;7.32;;;3.60;99.90;;;;;;4977918;28;20058;-94
2021/01/23 09:30:25;;;;;;;16.95;8.35;;;3.70;99.90;;;;;;4962156;28;20053;-96
2021/01/23 09:32:51;;;;;;;10.75;6.40;;;3.80;99.90;;;;;;4955857;28;20055;-96
2021/01/23 09:35:17;;;;;;;12.75;7.70;;;3.70;99.90;;;;;;4974543;28;20035;-95
2021/01/23 09:37:42;;;;;;;11.80;6.70;;;3.70;99.90;;;;;;4987991;28;20034;-96
2021/01/23 09:40:09;;;;;;;10.23;5.80;;;3.80;99.90;;;;;;4975027;28;20089;-96
2021/01/23 09:42:36;;;;;;;19.63;7.38;;;3.80;99.90;;;;;;4974752;28;20102;-96
2021/01/23 09:45:05;;;;;;;16.75;6.40;;;3.90;99.90;;;;;;4990895;28;20058;-95
2021/01/23 09:47:30;;;;;;;14.93;6.90;;;3.90;99.90;;;;;;4976441;28;20038;-96
2021/01/23 09:49:56;;;;;;;9.90;5.80;;;4.10;99.90;;;;;;4980611;28;20058;-96
2021/01/23 09:52:27;;;;;;;14.25;7.03;;;4.10;99.90;;;;;;4975887;28;20411;-96
2021/01/23 09:55:08;;;;;;;14.27;6.93;;;4.10;99.90;;;;;;4975624;28;20070;-96
2021/01/23 09:57:36;;;;;;;11.43;5.38;;;4.20;99.90;;;;;;4991589;23;20054;-96
2021/01/23 10:00:04;;;;;;;9.32;5.40;;;4.30;99.90;;;;;;4956286;28;20023;-96
2021/01/23 10:02:37;;;;;;;14.00;6.07;;;4.30;99.90;;;;;;4957793;29;20043;-96
2021/01/23 10:05:04;;;;;;;12.18;6.07;;;4.40;99.90;;;;;;4960751;28;20027;-95
2021/01/23 10:07:30;;;;;;;13.38;6.57;;;4.40;99.90;;;;;;4941468;28;20063;-96
2021/01/23 10:09:56;;;;;;;9.85;4.95;;;4.40;99.90;;;;;;4938718;28;20027;-95
2021/01/23 10:12:21;;;;;;;12.93;6.28;;;4.50;99.90;;;;;;4951016;28;20031;-95
2021/01/23 10:14:49;;;;;;;12.57;6.15;;;4.50;99.90;;;;;;4961344;29;20098;-94
2021/01/23 10:17:15;;;;;;;9.32;5.00;;;4.60;99.90;;;;;;4954492;28;20031;-94
2021/01/23 10:19:41;;;;;;;9.52;5.03;;;4.60;99.90;;;;;;4959368;28;20041;-95
2021/01/23 10:22:07;;;;;;;12.10;7.25;;;4.70;99.90;;;;;;4943532;28;20027;-95
2021/01/23 10:24:43;;;;;;;9.95;6.07;;;4.70;99.90;;;;;;4956335;29;20035;-93
2021/01/23 10:27:09;;;;;;;10.38;4.90;;;4.70;99.90;;;;;;4939342;28;20047;-96
2021/01/23 10:29:35;;;;;;;6.65;4.18;;;4.80;99.90;;;;;;4940077;28;20076;-94
2021/01/23 10:32:01;;;;;;;10.38;4.90;;;4.80;99.90;;;;;;4961138;29;20015;-96
2021/01/23 10:34:30;;;;;;;13.60;6.03;;;4.80;99.90;;;;;;4960574;28;20023;-95
2021/01/23 10:36:56;;;;;;;11.88;6.78;;;4.70;99.90;;;;;;4969561;28;20058;-94
2021/01/23 10:39:22;;;;;;;9.52;5.45;;;4.80;99.90;;;;;;4947659;28;20046;-92
2021/01/23 10:42:08;;;;;;;9.15;5.10;;;4.90;99.90;;;;;;4933328;29;20033;-92
2021/01/23 10:44:43;;;;;;;10.88;5.72;;;4.90;99.90;;;;;;4883677;29;20040;-93
2021/01/23 10:47:13;;;;;;;9.43;6.35;;;5.00;99.90;;;;;;4895470;29;20123;-96
2021/01/23 10:49:39;;;;;;;11.98;5.85;;;5.10;99.90;;;;;;4901932;29;20032;-96
2021/01/23 10:52:10;;;;;;;9.80;6.07;;;5.00;99.90;;;;;;4914257;29;20051;-96
2021/01/23 10:54:39;;;;;;;8.15;5.15;;;5.10;99.90;;;;;;4897587;29;20047;-96
2021/01/23 10:57:07;;;;;;;9.38;6.30;;;5.10;99.90;;;;;;4895827;29;20064;-96
2021/01/23 10:59:33;;;;;;;9.27;5.35;;;5.10;99.90;;;;;;4894256;29;20032;-96
2021/01/23 11:02:04;;;;;;;9.45;5.18;;;5.00;99.90;;;;;;4913493;29;20032;-94
2021/01/23 11:04:30;;;;;;;11.00;5.50;;;5.10;99.90;;;;;;4913641;29;20048;-96
2021/01/23 11:06:56;;;;;;;10.55;5.40;;;5.10;99.90;;;;;;4898091;29;20138;-90
2021/01/23 11:09:22;;;;;;;9.65;5.07;;;5.20;99.90;;;;;;4896746;29;20032;-90
2021/01/23 11:11:50;;;;;;;11.43;6.18;;;5.30;99.90;;;;;;4895772;29;20511;-91
2021/01/23 11:14:16;;;;;;;12.18;5.78;;;5.20;99.90;;;;;;4903207;29;20085;-91
2021/01/23 11:16:41;;;;;;;10.98;5.38;;;5.20;99.90;;;;;;4895727;29;20064;-91
2021/01/23 11:19:07;;;;;;;10.70;4.70;;;5.30;99.90;;;;;;4911826;29;20097;-94
2021/01/23 11:21:34;;;;;;;10.07;4.82;;;5.40;99.90;;;;;;4906592;28;20067;-95
2021/01/23 11:24:01;;;;;;;7.78;4.57;;;5.40;99.90;;;;;;4943211;28;20023;-93
2021/01/23 11:26:26;;;;;;;7.85;3.88;;;5.50;99.90;;;;;;4940440;28;20046;-91
2021/01/23 11:28:52;;;;;;;8.23;4.25;;;5.70;99.90;;;;;;4938908;29;20061;-95
2021/01/23 11:31:19;;;;;;;6.38;2.78;;;5.80;99.90;;;;;;4948564;28;20041;-96
2021/01/23 11:33:45;;;;;;;12.13;3.38;;;6.20;99.90;;;;;;4953115;28;20031;-95
2021/01/23 11:36:11;;;;;;;5.85;2.65;;;6.10;99.90;;;;;;4955272;28;20031;-96
2021/01/23 11:38:37;;;;;;;7.22;2.53;;;6.10;99.90;;;;;;4955861;28;20038;-95
2021/01/23 11:41:09;;;;;;;6.13;2.40;;;6.00;99.90;;;;;;4934111;28;20095;-93
2021/01/23 11:43:49;;;;;;;5.18;2.22;;;6.10;99.90;;;;;;4964937;23;20672;-93
2021/01/23 11:46:15;;;;;;;6.20;2.08;;;6.10;99.90;;;;;;4948382;29;20126;-94
2021/01/23 11:48:41;;;;;;;6.88;3.20;;;6.10;99.90;;;;;;4966262;29;20070;-91
2021/01/23 11:51:07;;;;;;;6.90;3.50;;;6.00;99.90;;;;;;4967171;28;20031;-94
2021/01/23 11:53:34;;;;;;;7.63;3.60;;;5.90;99.90;;;;;;4965920;28;20428;-94
2021/01/23 11:55:59;;;;;;;9.00;3.42;;;5.70;99.90;;;;;;4949940;28;20027;-94
2021/01/23 11:58:28;;;;;;;10.23;2.60;;;5.60;99.90;;;;;;4965405;29;20024;-94
2021/01/23 12:00:56;;;;;;;5.32;2.47;;;5.50;99.90;;;;;;4966565;28;20602;-94
2021/01/23 12:03:52;;;;;;;3.58;1.83;;;5.30;99.90;;;;;;4965967;29;20049;-94
2021/01/23 12:06:18;;;;;;;4.93;1.92;;;5.20;99.90;;;;;;4949764;29;20046;-93
2021/01/23 12:08:43;;;;;;;5.43;2.30;;;5.10;99.90;;;;;;4965808;29;20028;-94
2021/01/23 12:11:09;;;;;;;6.32;2.70;;;5.10;99.90;;;;;;4966588;29;20051;-92
2021/01/23 12:13:35;;;;;;;6.35;2.20;;;5.00;99.90;;;;;;4951003;28;20031;-94
2021/01/23 12:16:04;;;;;;;10.80;2.30;;;5.10;99.90;;;;;;4967274;29;20133;-94
2021/01/23 12:18:30;;;;;;;4.82;2.35;;;5.10;99.90;;;;;;4966523;28;20027;-92
2021/01/23 12:20:55;;;;;;;6.35;2.08;;;5.10;99.90;;;;;;4963712;29;20043;-95
2021/01/23 12:23:21;;;;;;;6.70;2.17;;;5.10;99.90;;;;;;4931689;29;20039;-92
2021/01/23 12:25:47;;;;;;;7.93;2.53;;;5.10;99.90;;;;;;4931521;29;20103;-93
2021/01/23 12:28:13;;;;;;;8.85;2.20;;;5.20;99.90;;;;;;4947622;29;20039;-93
2021/01/23 12:30:38;;;;;;;5.15;1.85;;;5.20;99.90;;;;;;4944733;29;20154;-95
2021/01/23 12:33:08;;;;;;;5.22;2.25;;;5.30;99.90;;;;;;4965638;29;20043;-94
2021/01/23 12:35:34;;;;;;;3.00;1.73;;;5.40;99.90;;;;;;4966574;28;20039;-94
2021/01/23 12:37:59;;;;;;;4.05;1.33;;;5.50;99.90;;;;;;4967376;29;20078;-93
2021/01/23 12:40:27;;;;;;;5.38;1.73;;;5.60;99.90;;;;;;4966669;29;20043;-93
2021/01/23 12:42:53;;;;;;;4.68;1.60;;;5.50;99.90;;;;;;4966660;29;20031;-94
2021/01/23 12:45:18;;;;;;;6.22;1.73;;;5.40;99.90;;;;;;4959262;28;20107;-91
2021/01/23 12:47:44;;;;;;;3.30;1.10;;;5.50;99.90;;;;;;4958410;28;20028;-95
2021/01/23 12:50:33;;;;;;;6.60;1.58;;;5.50;99.90;;;;;;4965321;29;20055;-96
2021/01/23 12:52:59;;;;;;;4.85;1.70;;;5.50;99.90;;;;;;4964556;28;20043;-94
2021/01/23 12:55:37;;;;;;;9.00;2.10;;;5.40;99.90;;;;;;4911228;28;20115;-94
2021/01/23 12:58:08;;;;;;;7.57;2.53;;;5.50;99.90;;;;;;4932978;29;20040;-93
2021/01/23 13:00:34;;;;;;;3.97;1.90;;;5.50;99.90;;;;;;4938991;29;20048;-93
2021/01/23 13:03:00;;;;;;;6.63;2.83;;;5.50;99.90;;;;;;4925839;29;20414;-94